Time;durP1;ratioP1;P1;durP2;ratioP2;P2;SDS_P1;SDS_P2;PMS_P1;PMS_P2;Temp;Humidity;BMP_temperature;BMP_pressure;BME280_temperature;BME280_humidity;BME280_pressure;Samples;Min_cycle;Max_cycle;Signal;HPM_P1;HPM_P2
2023/03/15 00:02:03;;;;;;;1.73;1.23;;;;;;;3.87;100.00;101091.31;5114470;28;20044;-66
2023/03/15 00:04:33;;;;;;;3.28;1.50;;;;;;;3.91;100.00;101087.16;5113590;28;20502;-66
2023/03/15 00:07:02;;;;;;;2.03;1.30;;;;;;;4.01;100.00;101084.78;5113254;28;20048;-66
2023/03/15 00:09:29;;;;;;;3.20;1.65;;;;;;;4.09;100.00;101079.16;5114226;28;20059;-65
2023/03/15 00:11:57;;;;;;;1.45;1.10;;;;;;;4.16;100.00;101081.78;5114658;28;20051;-66
2023/03/15 00:14:24;;;;;;;2.95;1.50;;;;;;;4.11;100.00;101087.81;5114394;28;20052;-66
2023/03/15 00:16:53;;;;;;;2.15;1.17;;;;;;;4.12;100.00;101084.09;5115557;28;20052;-66
2023/03/15 00:19:21;;;;;;;3.33;1.55;;;;;;;4.13;100.00;101096.53;5115160;28;20055;-66
2023/03/15 00:21:48;;;;;;;2.53;1.40;;;;;;;4.13;100.00;101084.91;5114790;28;20094;-66
2023/03/15 00:24:16;;;;;;;1.75;1.20;;;;;;;4.16;100.00;101093.41;5112588;28;20100;-67
2023/03/15 00:26:44;;;;;;;1.20;1.10;;;;;;;4.17;100.00;101092.34;5113043;28;20051;-65
2023/03/15 00:29:11;;;;;;;1.48;1.20;;;;;;;4.21;100.00;101088.19;5113762;28;20061;-67
2023/03/15 00:31:39;;;;;;;2.25;1.20;;;;;;;4.22;100.00;101092.50;5119107;28;20126;-66
2023/03/15 00:34:07;;;;;;;2.45;1.40;;;;;;;4.32;100.00;101093.91;5117660;28;20032;-67
2023/03/15 00:36:34;;;;;;;3.55;1.35;;;;;;;4.39;100.00;101094.69;5100241;27;20047;-66
2023/03/15 00:39:02;;;;;;;1.95;1.20;;;;;;;4.44;100.00;101094.84;5085874;28;20044;-66
2023/03/15 00:41:31;;;;;;;1.77;1.15;;;;;;;4.48;100.00;101087.97;5081953;28;20523;-66
2023/03/15 00:43:58;;;;;;;3.35;1.20;;;;;;;4.52;100.00;101089.16;5097513;28;20071;-66
2023/03/15 00:46:26;;;;;;;3.50;1.58;;;;;;;4.48;100.00;101093.34;5083032;28;20051;-66
2023/03/15 00:48:54;;;;;;;2.97;1.25;;;;;;;4.39;100.00;101103.59;5117401;28;20126;-66
2023/03/15 00:51:23;;;;;;;1.45;1.10;;;;;;;4.36;100.00;101100.53;5100662;28;20104;-65
2023/03/15 00:53:53;;;;;;;1.35;1.25;;;;;;;4.37;100.00;101105.69;5117870;28;20044;-66
2023/03/15 00:56:24;;;;;;;1.83;1.27;;;;;;;4.42;100.00;101113.94;5117861;27;20127;-65
2023/03/15 00:58:52;;;;;;;3.42;1.50;;;;;;;4.46;100.00;101111.63;5083398;28;20048;-66
2023/03/15 01:01:24;;;;;;;2.00;1.33;;;;;;;4.45;100.00;101120.78;5116351;28;20058;-67
2023/03/15 01:03:53;;;;;;;2.22;1.20;;;;;;;4.37;100.00;101129.13;5116351;28;20043;-65
2023/03/15 01:06:23;;;;;;;2.78;1.60;;;;;;;4.13;100.00;101128.88;5080365;27;20110;-66
2023/03/15 01:08:53;;;;;;;2.10;1.38;;;;;;;4.06;100.00;101136.19;5089651;28;20044;-65
2023/03/15 01:11:24;;;;;;;2.33;1.25;;;;;;;4.07;100.00;101148.66;5099435;28;20082;-66
2023/03/15 01:13:54;;;;;;;2.40;1.40;;;;;;;3.96;100.00;101160.09;5117304;28;20387;-65
2023/03/15 01:16:22;;;;;;;2.58;1.50;;;;;;;3.80;100.00;101167.66;5100327;28;20055;-66
2023/03/15 01:18:50;;;;;;;1.92;1.52;;;;;;;3.71;100.00;101168.13;5082757;28;20070;-66
2023/03/15 01:21:20;;;;;;;4.10;1.92;;;;;;;3.71;100.00;101158.16;5095927;28;20048;-66
2023/03/15 01:23:48;;;;;;;3.15;1.80;;;;;;;3.75;100.00;101162.09;5095313;28;20071;-66
2023/03/15 01:26:17;;;;;;;3.05;1.77;;;;;;;3.79;100.00;101160.59;5097210;28;20040;-66
2023/03/15 01:28:45;;;;;;;1.85;1.70;;;;;;;3.89;100.00;101175.47;5074153;27;20054;-66
2023/03/15 01:31:21;;;;;;;3.15;2.00;;;;;;;3.92;100.00;101173.19;5101785;27;20092;-66
2023/03/15 01:33:49;;;;;;;1.75;1.60;;;;;;;3.93;100.00;101171.31;5118069;27;20052;-66
2023/03/15 01:36:17;;;;;;;2.83;1.67;;;;;;;3.88;100.00;101182.75;5111173;28;20044;-66
2023/03/15 01:38:45;;;;;;;3.92;1.90;;;;;;;3.88;100.00;101168.44;5098522;28;20067;-66
2023/03/15 01:41:16;;;;;;;2.55;1.65;;;;;;;3.80;100.00;101180.28;5082481;28;20463;-66
2023/03/15 01:43:47;;;;;;;2.08;1.65;;;;;;;3.78;100.00;101177.81;5116564;27;20052;-65
2023/03/15 01:46:33;;;;;;;1.50;1.40;;;;;;;3.75;100.00;101180.94;5046694;28;20044;-66
2023/03/15 01:49:26;;;;;;;1.50;1.40;;;;;;;3.77;100.00;101176.16;5080807;28;20048;-65
2023/03/15 01:52:02;;;;;;;1.45;1.35;;;;;;;3.73;100.00;101185.72;5094668;28;20097;-64
2023/03/15 01:54:52;;;;;;;1.88;1.58;;;;;;;3.69;100.00;101189.88;5082715;27;20039;-65
2023/03/15 01:57:35;;;;;;;1.63;1.30;;;;;;;3.72;100.00;101181.34;5115493;28;20545;-66
2023/03/15 02:00:10;;;;;;;1.88;1.20;;;;;;;3.78;100.00;101177.00;5115324;28;20126;-66
2023/03/15 02:03:01;;;;;;;1.45;1.27;;;;;;;3.76;100.00;101181.78;5098488;28;20047;-66
2023/03/15 02:06:00;;;;;;;3.13;1.50;;;;;;;3.74;100.00;101175.78;5112415;28;20483;-65
2023/03/15 02:08:46;;;;;;;2.30;1.50;;;;;;;3.80;100.00;101173.06;5077641;28;20067;-66
2023/03/15 02:11:17;;;;;;;1.52;1.40;;;;;;;3.88;100.00;101185.44;5078212;28;20070;-66
2023/03/15 02:13:45;;;;;;;1.35;1.20;;;;;;;3.91;100.00;101179.63;5078843;27;20052;-66
2023/03/15 02:16:13;;;;;;;1.73;1.33;;;;;;;3.98;100.00;101168.81;5131977;27;20067;-66
2023/03/15 02:18:56;;;;;;;1.85;1.20;;;;;;;4.03;100.00;101177.06;5100165;28;20066;-66
2023/03/15 02:21:43;;;;;;;1.20;1.10;;;;;;;4.01;100.00;101182.66;5114701;28;20415;-65
2023/03/15 02:24:26;;;;;;;;;;;;;;;4.00;100.00;101186.41;5114246;27;20069;-66
2023/03/15 02:26:56;;;;;;;1.52;1.30;;;;;;;3.98;100.00;101176.91;5064750;28;19963;-65
2023/03/15 02:29:26;;;;;;;1.42;1.30;;;;;;;4.00;100.00;101188.28;5114317;27;20039;-65
2023/03/15 02:31:55;;;;;;;1.95;1.60;;;;;;;4.02;100.00;101178.13;5097917;28;20051;-65
2023/03/15 02:34:25;;;;;;;2.22;1.50;;;;;;;4.02;100.00;101180.81;5102411;28;20039;-66
2023/03/15 02:36:54;;;;;;;1.48;1.38;;;;;;;4.00;100.00;101178.34;5122869;27;20056;-58
2023/03/15 02:39:23;;;;;;;1.10;1.10;;;;;;;4.04;100.00;101189.50;5128165;28;20044;-66
2023/03/15 02:41:57;;;;;;;1.80;1.60;;;;;;;4.06;100.00;101184.72;5117507;28;20164;-65
2023/03/15 02:44:29;;;;;;;3.38;1.50;;;;;;;4.09;100.00;101180.75;5118467;28;20067;-65
2023/03/15 02:47:04;;;;;;;3.22;1.33;;;;;;;4.09;100.00;101192.41;5104734;28;20052;-66
2023/03/15 02:49:37;;;;;;;1.67;1.50;;;;;;;4.09;100.00;101192.41;5096353;28;20044;-66
2023/03/15 02:52:06;;;;;;;2.30;1.70;;;;;;;4.08;100.00;101195.31;5060510;28;20059;-65
2023/03/15 02:54:34;;;;;;;1.05;1.05;;;;;;;4.07;100.00;101196.34;5076851;28;20040;-65
2023/03/15 02:57:02;;;;;;;1.80;1.45;;;;;;;4.07;100.00;101194.47;5095111;28;20056;-65
2023/03/15 02:59:30;;;;;;;1.50;1.40;;;;;;;4.03;100.00;101195.94;5105310;28;20126;-66
2023/03/15 03:01:58;;;;;;;1.90;1.67;;;;;;;4.04;100.00;101200.28;5113484;28;20040;-66
2023/03/15 03:04:26;;;;;;;2.00;1.60;;;;;;;4.03;100.00;101204.03;5115089;28;20045;-67
2023/03/15 03:06:53;;;;;;;2.05;1.50;;;;;;;4.03;100.00;101206.72;5096279;28;20082;-66
2023/03/15 03:09:25;;;;;;;2.58;1.63;;;;;;;4.04;100.00;101216.47;5099153;27;20060;-66
2023/03/15 03:11:53;;;;;;;2.42;1.38;;;;;;;4.03;100.00;101214.81;5076410;28;20094;-65
2023/03/15 03:14:22;;;;;;;2.15;1.85;;;;;;;4.05;100.00;101228.91;5093427;28;20068;-66
2023/03/15 03:16:51;;;;;;;2.40;1.98;;;;;;;4.08;100.00;101238.44;5078344;28;20089;-66
2023/03/15 03:19:19;;;;;;;2.05;1.85;;;;;;;4.05;100.00;101231.63;5093027;28;20040;-66
2023/03/15 03:21:46;;;;;;;3.28;1.98;;;;;;;4.02;100.00;101234.75;5093347;28;20472;-66
2023/03/15 03:24:14;;;;;;;4.65;1.95;;;;;;;3.97;100.00;101243.47;5059401;28;20089;-66
2023/03/15 03:26:44;;;;;;;3.78;2.10;;;;;;;3.96;100.00;101252.59;5094122;28;20052;-66
2023/03/15 03:29:15;;;;;;;3.85;2.20;;;;;;;3.95;100.00;101255.50;5110417;27;20096;-66
2023/03/15 03:31:45;;;;;;;2.53;1.98;;;;;;;3.94;100.00;101257.34;5113626;28;20560;-66
2023/03/15 03:34:14;;;;;;;3.25;2.00;;;;;;;3.95;100.00;101255.50;5113264;28;20043;-66
2023/03/15 03:36:43;;;;;;;2.97;2.20;;;;;;;3.93;100.00;101257.59;5113450;28;20051;-66
2023/03/15 03:39:14;;;;;;;6.68;2.35;;;;;;;3.91;100.00;101268.56;5112069;27;20051;-66
2023/03/15 03:41:43;;;;;;;3.60;2.25;;;;;;;3.87;100.00;101278.13;5096199;28;20472;-65
2023/03/15 03:44:12;;;;;;;2.47;2.25;;;;;;;3.87;100.00;101280.81;5113393;28;20044;-66
2023/03/15 03:46:41;;;;;;;4.85;2.40;;;;;;;3.88;100.00;101287.06;5112883;28;20077;-65
2023/03/15 03:49:09;;;;;;;4.20;2.60;;;;;;;3.86;100.00;101281.88;5106093;28;20040;-66
2023/03/15 03:51:37;;;;;;;5.22;2.42;;;;;;;3.86;100.00;101287.25;5093850;28;20507;-65
2023/03/15 03:54:06;;;;;;;5.22;2.60;;;;;;;3.87;100.00;101288.09;5075966;28;20032;-66
2023/03/15 03:56:34;;;;;;;3.67;2.45;;;;;;;3.88;100.00;101282.50;5092345;28;20492;-65
2023/03/15 03:59:02;;;;;;;4.25;2.80;;;;;;;3.92;100.00;101285.56;5077058;28;20084;-65
2023/03/15 04:01:50;;;;;;;6.38;2.95;;;;;;;3.95;100.00;101293.25;5092641;28;20565;-66
2023/03/15 04:04:18;;;;;;;5.85;3.22;;;;;;;3.95;100.00;101295.94;5075060;28;20400;-66
2023/03/15 04:06:45;;;;;;;4.63;2.95;;;;;;;3.94;100.00;101296.97;5093677;28;20071;-66
2023/03/15 04:09:17;;;;;;;9.80;3.38;;;;;;;3.92;100.00;101293.66;5093028;28;20488;-67
2023/03/15 04:11:47;;;;;;;6.30;3.25;;;;;;;3.92;100.00;101305.28;5092936;28;20059;-66
2023/03/15 04:14:16;;;;;;;5.35;3.13;;;;;;;3.92;100.00;101304.44;5092972;28;20040;-66
2023/03/15 04:16:46;;;;;;;8.57;3.50;;;;;;;3.92;100.00;101302.59;5092826;28;20040;-66
2023/03/15 04:19:17;;;;;;;5.70;3.28;;;;;;;3.92;100.00;101310.69;5092442;28;20048;-67
2023/03/15 04:21:48;;;;;;;5.85;3.33;;;;;;;3.93;100.00;101311.50;5110503;28;20043;-66
2023/03/15 04:24:38;;;;;;;7.63;3.85;;;;;;;3.93;100.00;101316.91;5112815;28;20039;-66
2023/03/15 04:27:24;;;;;;;7.65;3.83;;;;;;;3.89;100.00;101321.03;5112449;28;20480;-65
2023/03/15 04:30:18;;;;;;;5.32;3.72;;;;;;;3.84;100.00;101346.75;5125136;28;20147;-66
2023/03/15 04:33:09;;;;;;;8.02;4.13;;;;;;;3.82;100.00;101348.88;5107838;28;20051;-66
2023/03/15 04:36:01;;;;;;;8.32;3.90;;;;;;;3.79;100.00;101349.25;5113631;28;20040;-65
2023/03/15 04:38:34;;;;;;;8.65;4.13;;;;;;;3.80;100.00;101342.84;5112568;28;20047;-66
2023/03/15 04:41:26;;;;;;;5.55;3.67;;;;;;;3.82;100.00;101348.88;5112290;28;20097;-66
2023/03/15 04:44:17;;;;;;;6.68;3.80;;;;;;;3.82;100.00;101356.94;5113115;28;20058;-66
2023/03/15 04:46:56;;;;;;;8.07;4.47;;;;;;;3.81;100.00;101355.28;5112274;28;20144;-66
2023/03/15 04:49:32;;;;;;;7.50;4.18;;;;;;;3.80;100.00;101359.03;5113626;28;20123;-66
2023/03/15 04:52:24;;;;;;;6.93;3.83;;;;;;;3.81;100.00;101367.94;5112913;28;20047;-66
2023/03/15 04:55:08;;;;;;;7.60;4.28;;;;;;;3.81;100.00;101362.53;5097181;28;20491;-65
2023/03/15 04:57:55;;;;;;;7.50;4.47;;;;;;;3.77;100.00;101356.72;5113715;28;20039;-67
2023/03/15 05:00:42;;;;;;;6.85;4.13;;;;;;;3.76;100.00;101368.56;5085052;28;20048;-65
2023/03/15 05:03:28;;;;;;;10.68;4.95;;;;;;;3.74;100.00;101367.94;5091320;28;20511;-66
2023/03/15 05:06:16;;;;;;;7.45;4.35;;;;;;;3.74;100.00;101378.72;5069646;28;20060;-65
2023/03/15 05:08:55;;;;;;;9.00;4.35;;;;;;;3.73;100.00;101379.75;5075226;28;20044;-65
2023/03/15 05:11:41;;;;;;;;;;;;;;;3.74;100.00;101377.88;5109819;28;20058;-65
2023/03/15 05:14:16;;;;;;;9.48;5.25;;;;;;;3.67;100.00;101383.28;5089543;28;19924;-65
2023/03/15 05:17:09;;;;;;;9.15;5.00;;;;;;;3.52;100.00;101388.06;5093098;28;20044;-65
2023/03/15 05:20:00;;;;;;;9.60;5.28;;;;;;;3.46;100.00;101391.56;5089853;27;20500;-65
2023/03/15 05:22:46;;;;;;;;;;;;;;;3.47;100.00;101387.84;5104753;28;20060;-64
2023/03/15 05:25:30;;;;;;;8.23;5.50;;;;;;;3.49;100.00;101396.53;5065945;28;20322;-65
2023/03/15 05:28:22;;;;;;;18.42;6.20;;;;;;;3.53;100.00;101404.00;5077915;28;20143;-66
2023/03/15 05:31:01;;;;;;;9.43;5.20;;;;;;;3.56;100.00;101405.44;5097655;27;20101;-66
2023/03/15 05:34:07;;;;;;;8.82;5.80;;;;;;;3.56;100.00;101409.00;5085321;28;20044;-65
2023/03/15 05:36:58;;;;;;;10.88;5.90;;;;;;;3.58;100.00;101406.94;5089820;28;20056;-65
2023/03/15 05:39:46;;;;;;;9.70;5.70;;;;;;;3.61;100.00;101405.69;5107877;28;20887;-66
2023/03/15 05:42:14;;;;;;;9.82;5.68;;;;;;;3.62;100.00;101408.16;5113863;28;20048;-65
2023/03/15 05:45:08;;;;;;;9.30;5.75;;;;;;;3.64;100.00;101424.13;5076594;28;20066;-68
2023/03/15 05:47:53;;;;;;;12.55;6.53;;;;;;;3.62;100.00;101420.81;5114199;28;20040;-67
2023/03/15 05:50:41;;;;;;;10.73;5.78;;;;;;;3.57;100.00;101431.38;5115000;27;20086;-66
2023/03/15 05:53:25;;;;;;;10.60;5.30;;;;;;;3.53;100.00;101433.63;5101136;28;20051;-67
2023/03/15 05:56:08;;;;;;;10.52;5.72;;;;;;;3.51;100.00;101432.19;5116561;28;20059;-65
2023/03/15 05:58:49;;;;;;;9.10;5.88;;;;;;;3.51;100.00;101440.28;5083089;28;20089;-65
2023/03/15 06:01:35;;;;;;;8.50;5.88;;;;;;;3.50;100.00;101441.31;5117078;27;20045;-66
2023/03/15 06:04:11;;;;;;;11.05;6.30;;;;;;;3.52;100.00;101444.63;5115030;28;20047;-65
2023/03/15 06:06:40;;;;;;;9.05;5.65;;;;;;;3.51;100.00;101453.75;5115093;28;20048;-65
2023/03/15 06:09:10;;;;;;;9.40;5.93;;;;;;;3.48;100.00;101460.38;5089693;28;20488;-65
2023/03/15 06:11:38;;;;;;;8.65;5.90;;;;;;;3.47;100.00;101457.91;5112726;27;20063;-65
2023/03/15 06:14:07;;;;;;;9.75;5.82;;;;;;;3.48;100.00;101459.53;5115025;28;20047;-65
2023/03/15 06:16:50;;;;;;;9.30;5.95;;;;;;;3.47;100.00;101457.91;5100226;28;20036;-65
2023/03/15 06:19:20;;;;;;;9.48;5.90;;;;;;;3.47;100.00;101468.69;5097669;28;20492;-65
2023/03/15 06:21:50;;;;;;;11.77;6.70;;;;;;;3.42;100.00;101462.03;5109737;27;20566;-66
2023/03/15 06:24:38;;;;;;;10.68;6.55;;;;;;;3.44;100.00;101474.44;5110935;28;20051;-65
2023/03/15 06:27:05;;;;;;;10.45;6.40;;;;;;;3.42;100.00;101475.50;5091155;28;20050;-66
2023/03/15 06:29:35;;;;;;;8.90;6.25;;;;;;;3.43;100.00;101487.09;5111108;28;20051;-66
2023/03/15 06:32:05;;;;;;;11.90;7.20;;;;;;;3.46;100.00;101488.56;5114414;27;20122;-64
2023/03/15 06:34:35;;;;;;;8.57;6.13;;;;;;;3.47;100.00;101496.44;5107197;28;20046;-65
2023/03/15 06:37:03;;;;;;;9.23;6.28;;;;;;;3.46;100.00;101496.63;5113234;28;20044;-65
2023/03/15 06:39:33;;;;;;;10.90;7.20;;;;;;;3.50;100.00;101508.66;5128014;28;20122;-65
2023/03/15 06:42:03;;;;;;;11.18;6.97;;;;;;;3.36;100.00;101503.22;5121139;27;20067;-60
2023/03/15 06:44:33;;;;;;;10.55;6.80;;;;;;;3.32;100.00;101504.69;5114637;28;20055;-59
2023/03/15 06:47:05;;;;;;;11.05;7.40;;;;;;;3.29;100.00;101509.63;5112414;28;20058;-60
2023/03/15 06:49:32;;;;;;;12.20;9.27;;;;;;;3.31;100.00;101521.03;5102186;28;20075;-66
2023/03/15 06:52:01;;;;;;;12.70;9.00;;;;;;;3.27;100.00;101523.34;5080084;27;20052;-66
2023/03/15 06:54:29;;;;;;;14.60;7.03;;;;;;;3.29;100.00;101532.00;5094588;27;20044;-66
2023/03/15 06:56:57;;;;;;;10.05;7.03;;;;;;;3.35;100.00;101531.22;5091325;28;20142;-65
2023/03/15 06:59:25;;;;;;;10.68;7.03;;;;;;;3.38;100.00;101541.56;5123284;27;20109;-66
2023/03/15 07:01:53;;;;;;;10.95;7.00;;;;;;;3.43;100.00;101546.34;5103706;27;20052;-66
2023/03/15 07:04:20;;;;;;;12.27;8.18;;;;;;;3.48;100.00;101556.53;5116765;27;20446;-66
2023/03/15 07:06:48;;;;;;;11.73;7.47;;;;;;;3.51;100.00;101550.72;4403525;28;10000610;-67
2023/03/15 07:09:16;;;;;;;13.75;7.18;;;;;;;3.56;100.00;101556.34;5089814;27;20419;-67
2023/03/15 07:11:44;;;;;;;12.63;7.13;;;;;;;3.61;100.00;101572.75;5095679;28;20059;-67
2023/03/15 07:14:11;;;;;;;10.18;7.15;;;;;;;3.64;100.00;101564.25;5093800;28;20122;-67
2023/03/15 07:16:39;;;;;;;13.02;7.03;;;;;;;3.67;100.00;101574.59;5113873;27;20532;-68
2023/03/15 07:19:07;;;;;;;11.95;7.20;;;;;;;3.71;100.00;101583.97;5110052;27;20093;-67
2023/03/15 07:21:34;;;;;;;11.00;7.43;;;;;;;3.74;100.00;101583.53;5110359;28;20043;-66
2023/03/15 07:24:02;;;;;;;13.60;8.10;;;;;;;3.75;100.00;101587.91;5110821;27;20608;-66
2023/03/15 07:26:30;;;;;;;14.35;7.40;;;;;;;3.73;100.00;101602.59;5112023;27;20849;-66
2023/03/15 07:28:57;;;;;;;13.98;7.70;;;;;;;3.66;100.00;101601.78;5111590;28;20051;-66
2023/03/15 07:31:25;;;;;;;10.68;6.45;;;;;;;3.66;100.00;101605.31;5098080;28;20520;-66
2023/03/15 07:33:53;;;;;;;10.35;6.30;;;;;;;3.70;100.00;101606.53;5090663;28;20556;-66
2023/03/15 07:36:21;;;;;;;12.27;6.40;;;;;;;3.71;100.00;101615.47;5089201;28;20079;-67
2023/03/15 07:38:49;;;;;;;11.50;6.50;;;;;;;3.69;100.00;101610.28;5089064;28;20109;-67
2023/03/15 07:41:16;;;;;;;10.55;6.28;;;;;;;3.68;100.00;101615.84;5089198;28;20381;-65
2023/03/15 07:43:57;;;;;;;11.48;6.53;;;;;;;3.71;100.00;101619.00;5073485;28;20051;-67
2023/03/15 07:46:25;;;;;;;12.63;8.07;;;;;;;3.75;100.00;101617.56;5072254;28;20051;-67
2023/03/15 07:48:52;;;;;;;14.35;6.50;;;;;;;3.78;100.00;101621.72;5109330;28;20052;-65
2023/03/15 07:51:20;;;;;;;9.65;6.00;;;;;;;3.79;100.00;101618.78;5104431;28;20131;-66
2023/03/15 07:53:48;;;;;;;10.73;6.25;;;;;;;3.80;100.00;101625.88;5093947;28;20075;-66
2023/03/15 07:56:15;;;;;;;12.60;5.65;;;;;;;3.81;100.00;101627.50;5096149;28;20081;-67
2023/03/15 07:58:44;;;;;;;10.40;5.18;;;;;;;3.81;100.00;101638.31;5117260;27;20090;-66
2023/03/15 08:01:12;;;;;;;10.63;4.88;;;;;;;3.78;100.00;101638.72;5079566;28;20055;-66
2023/03/15 08:03:40;;;;;;;12.05;4.72;;;;;;;3.85;100.00;101644.13;5112874;28;20066;-67
2023/03/15 08:06:08;;;;;;;12.38;5.10;;;;;;;3.90;100.00;101640.81;5113696;28;20040;-66
2023/03/15 08:08:35;;;;;;;12.20;5.35;;;;;;;3.89;100.00;101652.63;5099448;28;20048;-66
2023/03/15 08:11:04;;;;;;;11.93;5.00;;;;;;;3.84;100.00;101654.06;5093332;28;20040;-65
2023/03/15 08:13:32;;;;;;;11.32;5.05;;;;;;;3.82;100.00;101666.09;5075879;28;20056;-66
2023/03/15 08:16:00;;;;;;;11.40;4.88;;;;;;;3.78;100.00;101671.06;5093338;28;20044;-66
2023/03/15 08:18:28;;;;;;;12.90;4.70;;;;;;;3.80;100.00;101677.09;5093473;28;20052;-67
2023/03/15 08:20:56;;;;;;;14.27;5.43;;;;;;;3.82;100.00;101677.72;5093855;28;20052;-65
2023/03/15 08:23:24;;;;;;;13.18;5.05;;;;;;;3.82;100.00;101675.03;5113762;28;20477;-65
2023/03/15 08:25:51;;;;;;;13.60;4.93;;;;;;;3.82;100.00;101687.66;5112087;28;20079;-66
2023/03/15 08:28:19;;;;;;;13.57;5.13;;;;;;;3.82;100.00;101677.72;5114288;28;20056;-66
2023/03/15 08:30:47;;;;;;;14.30;4.22;;;;;;;3.83;100.00;101679.38;5113719;28;20048;-66
2023/03/15 08:33:15;;;;;;;13.00;4.13;;;;;;;3.91;100.00;101685.63;5095888;28;20066;-66
2023/03/15 08:35:42;;;;;;;16.73;4.50;;;;;;;4.02;100.00;101685.03;5095364;28;20043;-66
2023/03/15 08:38:10;;;;;;;12.27;3.90;;;;;;;4.04;100.00;101693.72;5095095;28;20078;-68
2023/03/15 08:40:39;;;;;;;13.43;5.00;;;;;;;4.03;100.00;101694.78;5112817;28;20391;-66
2023/03/15 08:43:07;;;;;;;12.93;4.50;;;;;;;4.03;100.00;101703.69;5112924;28;20100;-67
2023/03/15 08:45:34;;;;;;;16.52;5.07;;;;;;;4.15;100.00;101695.84;5113797;28;20118;-66
2023/03/15 08:48:22;;;;;;;15.18;4.93;;;;;;;4.19;100.00;101701.69;5113762;28;20044;-67
2023/03/15 08:50:49;;;;;;;12.75;4.35;;;;;;;4.19;100.00;101705.19;5115433;28;20048;-65
2023/03/15 08:53:17;;;;;;;10.70;3.83;;;;;;;4.20;100.00;101706.03;5118305;28;20055;-65
2023/03/15 08:55:46;;;;;;;12.30;4.00;;;;;;;4.25;100.00;101712.44;5115408;28;20046;-66
2023/03/15 08:58:14;;;;;;;12.70;3.97;;;;;;;4.28;100.00;101708.50;5116604;27;20053;-67
2023/03/15 09:00:41;;;;;;;12.88;4.35;;;;;;;4.35;100.00;101724.72;5119620;27;20470;-67
2023/03/15 09:03:10;;;;;;;12.77;3.75;;;;;;;4.35;100.00;101719.31;5115572;27;20487;-66
2023/03/15 09:05:37;;;;;;;16.33;4.05;;;;;;;4.35;100.00;101717.44;5120351;27;20492;-65
2023/03/15 09:08:05;;;;;;;10.32;3.97;;;;;;;4.36;100.00;101729.09;5116672;28;20044;-65
2023/03/15 09:10:33;;;;;;;15.32;4.00;;;;;;;4.37;100.00;101728.88;5118208;28;20052;-65
2023/03/15 09:13:00;;;;;;;12.85;3.42;;;;;;;4.43;100.00;101727.25;5109130;28;20464;-65
2023/03/15 09:15:28;;;;;;;17.25;4.63;;;;;;;4.48;100.00;101735.56;5096351;28;20040;-66
2023/03/15 09:17:56;;;;;;;10.18;3.70;;;;;;;4.54;100.00;101729.31;5097906;28;20052;-65
2023/03/15 09:20:27;;;;;;;12.65;3.90;;;;;;;4.58;100.00;101730.59;5097484;28;20076;-66
2023/03/15 09:22:56;;;;;;;15.30;4.00;;;;;;;4.58;100.00;101727.88;5070202;28;20158;-67
2023/03/15 09:25:26;;;;;;;12.07;4.07;;;;;;;4.57;100.00;101728.94;5115963;28;20067;-66
2023/03/15 09:27:54;;;;;;;12.60;3.95;;;;;;;4.59;100.00;101724.13;5116120;28;20065;-66
2023/03/15 09:30:23;;;;;;;16.35;4.00;;;;;;;4.61;100.00;101723.94;5103208;28;20438;-67
2023/03/15 09:32:54;;;;;;;15.32;4.15;;;;;;;4.63;100.00;101722.69;5096929;28;20039;-66
2023/03/15 09:35:21;;;;;;;13.93;3.83;;;;;;;4.68;100.00;101724.78;5095302;28;20044;-65
2023/03/15 09:37:50;;;;;;;11.27;3.80;;;;;;;4.73;100.00;101732.25;5096581;28;20054;-65
2023/03/15 09:40:29;;;;;;;14.05;4.10;;;;;;;4.73;100.00;101735.78;5098008;28;20048;-66
2023/03/15 09:43:07;;;;;;;16.60;3.90;;;;;;;4.81;100.00;101729.34;5098217;27;20043;-66
2023/03/15 09:45:56;;;;;;;12.05;3.72;;;;;;;4.88;98.53;101730.16;5089436;27;20039;-66
2023/03/15 09:48:34;;;;;;;16.65;3.80;;;;;;;4.89;95.92;101737.25;5116556;27;20052;-67
2023/03/15 09:51:23;;;;;;;15.27;4.00;;;;;;;4.89;96.13;101737.25;5115751;28;20495;-66
2023/03/15 09:54:07;;;;;;;15.15;3.92;;;;;;;4.94;95.98;101737.47;5117454;28;20051;-63
2023/03/15 09:56:44;;;;;;;11.50;3.67;;;;;;;4.99;93.60;101740.34;5116158;27;20035;-65
2023/03/15 09:59:16;;;;;;;12.68;3.53;;;;;;;5.06;93.59;101741.19;5115740;28;20047;-66
2023/03/15 10:01:44;;;;;;;14.65;3.83;;;;;;;5.08;92.82;101741.81;5115646;28;20075;-66
2023/03/15 10:04:39;;;;;;;13.43;4.00;;;;;;;5.09;89.30;101738.06;5112788;28;20047;-66
2023/03/15 10:07:12;;;;;;;12.13;3.53;;;;;;;5.10;89.38;101747.84;5114882;27;20040;-63
2023/03/15 10:09:40;;;;;;;11.68;3.60;;;;;;;5.10;88.63;101747.84;5100656;28;20048;-65
2023/03/15 10:12:12;;;;;;;13.13;3.70;;;;;;;5.09;86.12;101748.88;5106611;28;20044;-65
2023/03/15 10:15:20;;;;;;;12.07;3.35;;;;;;;5.12;85.34;101742.22;5081253;28;20054;-65
2023/03/15 10:17:57;;;;;;;13.35;3.20;;;;;;;5.22;86.66;101741.78;5114394;27;20502;-65
2023/03/15 10:20:40;;;;;;;13.25;3.53;;;;;;;5.34;87.27;101743.66;5116032;28;20122;-66
2023/03/15 10:23:19;;;;;;;13.38;3.47;;;;;;;5.49;86.35;101743.41;5115345;28;20052;-66
2023/03/15 10:25:49;;;;;;;9.07;3.22;;;;;;;5.53;82.71;101750.06;5115476;28;20077;-62
2023/03/15 10:28:26;;;;;;;13.50;4.03;;;;;;;5.55;80.78;101745.25;5120180;27;20047;-64
2023/03/15 10:30:58;;;;;;;14.32;4.00;;;;;;;5.57;81.43;101749.63;5122484;28;20574;-63
2023/03/15 10:33:34;;;;;;;14.00;3.80;;;;;;;5.65;84.16;101754.81;5118998;27;20044;-69
2023/03/15 10:36:10;;;;;;;12.25;3.72;;;;;;;5.92;97.85;101750.16;5119449;28;20039;-66
2023/03/15 10:38:40;;;;;;;8.75;3.03;;;;;;;5.87;90.69;101756.22;5109612;28;20079;-66
2023/03/15 10:41:08;;;;;;;13.57;3.72;;;;;;;5.74;84.89;101750.84;5118755;28;20518;-65
2023/03/15 10:43:38;;;;;;;18.92;3.83;;;;;;;5.63;82.65;101756.88;5118956;28;20047;-66
2023/03/15 10:46:11;;;;;;;13.27;3.97;;;;;;;5.55;82.12;101756.06;5151590;27;20394;-58
2023/03/15 10:49:08;;;;;;;13.82;3.78;;;;;;;5.51;80.11;101756.72;5143356;27;20491;-65
2023/03/15 10:51:46;;;;;;;10.60;3.10;;;;;;;5.43;78.34;101760.47;5136397;27;20079;-64
2023/03/15 10:54:23;;;;;;;13.93;3.95;;;;;;;5.39;76.37;101767.34;5134511;27;20047;-65
2023/03/15 10:57:02;;;;;;;16.58;3.63;;;;;;;5.40;75.83;101768.19;5095285;28;20036;-66
2023/03/15 10:59:35;;;;;;;14.05;3.63;;;;;;;5.44;76.41;101764.84;5096163;28;20075;-66
2023/03/15 11:02:11;;;;;;;13.65;3.70;;;;;;;5.47;74.40;101780.63;5077099;28;20099;-68
2023/03/15 11:05:03;;;;;;;13.52;4.75;;;;;;;5.59;76.71;101774.59;5112538;28;20047;-66
2023/03/15 11:07:34;;;;;;;11.25;3.45;;;;;;;5.70;77.55;101782.03;5115201;28;20047;-66
2023/03/15 11:10:06;;;;;;;12.05;3.42;;;;;;;5.71;72.52;101789.13;5114121;28;20093;-65
2023/03/15 11:12:34;;;;;;;9.35;3.70;;;;;;;5.78;73.24;101791.81;5113160;28;20471;-68
2023/03/15 11:15:12;;;;;;;11.27;2.97;;;;;;;5.76;69.48;101789.31;5092907;28;20075;-67
2023/03/15 11:17:47;;;;;;;7.63;2.63;;;;;;;5.78;68.40;101789.94;5093407;28;20044;-66
2023/03/15 11:20:53;;;;;;;14.70;4.18;;;;;;;6.02;90.82;101795.72;5094648;28;20446;-66
2023/03/15 11:23:25;;;;;;;13.90;4.38;;;;;;;6.38;100.00;101795.97;5095128;27;20054;-66
2023/03/15 11:25:53;;;;;;;14.98;3.28;;;;;;;6.25;91.60;101795.19;5113373;28;20468;-67
2023/03/15 11:28:27;;;;;;;12.93;4.15;;;;;;;6.44;100.00;101798.84;5113855;28;20047;-67
2023/03/15 11:30:59;;;;;;;15.25;3.75;;;;;;;6.58;100.00;101795.84;5113324;28;20135;-67
2023/03/15 11:33:42;;;;;;;12.98;3.80;;;;;;;6.47;96.44;101803.84;5113145;28;20458;-67
2023/03/15 11:36:16;;;;;;;15.70;3.72;;;;;;;6.18;80.80;101804.19;5080264;28;20039;-66
2023/03/15 11:38:44;;;;;;;11.80;4.05;;;;;;;6.22;88.73;101796.47;5076374;28;20511;-67
2023/03/15 11:41:30;;;;;;;15.27;3.42;;;;;;;6.12;78.75;101796.09;5108370;27;20043;-68
2023/03/15 11:44:10;;;;;;;9.50;3.10;;;;;;;5.94;74.12;101797.63;5097416;28;20119;-67
2023/03/15 11:46:56;;;;;;;10.43;3.30;;;;;;;5.84;73.77;101794.47;5094317;28;20062;-67
2023/03/15 11:49:39;;;;;;;14.88;3.63;;;;;;;5.81;73.20;101792.22;5092956;28;20097;-65
2023/03/15 11:52:07;;;;;;;10.18;3.30;;;;;;;5.89;73.09;101789.28;5103293;28;20100;-67
2023/03/15 11:54:36;;;;;;;7.32;2.90;;;;;;;5.96;73.43;101795.53;5095569;28;20136;-67